sensor_id;sensor_type;location;lat;lon;timestamp;temperature;humidity
13458;DHT22;6801;53.018;11.560;2023-04-24T00:02:26;14.90;62.80
13458;DHT22;6801;53.018;11.560;2023-04-24T00:04:53;14.80;63.00
13458;DHT22;6801;53.018;11.560;2023-04-24T00:07:22;14.70;63.20
13458;DHT22;6801;53.018;11.560;2023-04-24T00:09:49;14.70;63.30
13458;DHT22;6801;53.018;11.560;2023-04-24T00:12:16;14.70;63.40
13458;DHT22;6801;53.018;11.560;2023-04-24T00:14:43;14.70;63.60
13458;DHT22;6801;53.018;11.560;2023-04-24T00:17:09;14.70;63.60
13458;DHT22;6801;53.018;11.560;2023-04-24T00:19:36;14.60;63.70
13458;DHT22;6801;53.018;11.560;2023-04-24T00:22:03;14.60;63.80
13458;DHT22;6801;53.018;11.560;2023-04-24T00:24:32;14.60;63.90
13458;DHT22;6801;53.018;11.560;2023-04-24T00:26:59;14.60;63.70
13458;DHT22;6801;53.018;11.560;2023-04-24T00:29:26;14.60;63.80
13458;DHT22;6801;53.018;11.560;2023-04-24T00:31:54;14.60;63.90
13458;DHT22;6801;53.018;11.560;2023-04-24T00:34:21;14.50;63.90
13458;DHT22;6801;53.018;11.560;2023-04-24T00:36:48;14.50;64.10
13458;DHT22;6801;53.018;11.560;2023-04-24T00:39:17;14.50;64.20
13458;DHT22;6801;53.018;11.560;2023-04-24T00:41:46;14.40;64.30
13458;DHT22;6801;53.018;11.560;2023-04-24T00:44:14;14.40;64.50
13458;DHT22;6801;53.018;11.560;2023-04-24T00:46:41;14.30;64.50
13458;DHT22;6801;53.018;11.560;2023-04-24T00:49:09;14.30;64.40
13458;DHT22;6801;53.018;11.560;2023-04-24T00:51:35;14.30;64.50
13458;DHT22;6801;53.018;11.560;2023-04-24T00:54:03;14.20;64.60
13458;DHT22;6801;53.018;11.560;2023-04-24T00:56:30;14.30;64.60
13458;DHT22;6801;53.018;11.560;2023-04-24T00:58:59;14.20;64.70
13458;DHT22;6801;53.018;11.560;2023-04-24T01:01:26;14.20;64.70
13458;DHT22;6801;53.018;11.560;2023-04-24T01:03:53;14.20;64.70
13458;DHT22;6801;53.018;11.560;2023-04-24T01:06:20;14.20;64.70
13458;DHT22;6801;53.018;11.560;2023-04-24T01:08:48;14.20;64.70
13458;DHT22;6801;53.018;11.560;2023-04-24T01:11:16;14.20;64.60
13458;DHT22;6801;53.018;11.560;2023-04-24T01:13:45;14.10;64.70
13458;DHT22;6801;53.018;11.560;2023-04-24T01:16:14;14.10;64.70
13458;DHT22;6801;53.018;11.560;2023-04-24T01:18:43;14.10;64.70
13458;DHT22;6801;53.018;11.560;2023-04-24T01:21:13;14.10;64.60
13458;DHT22;6801;53.018;11.560;2023-04-24T01:23:43;14.10;64.70
13458;DHT22;6801;53.018;11.560;2023-04-24T01:26:10;14.10;64.70
13458;DHT22;6801;53.018;11.560;2023-04-24T01:28:37;14.00;64.80
13458;DHT22;6801;53.018;11.560;2023-04-24T01:31:05;14.00;64.80
13458;DHT22;6801;53.018;11.560;2023-04-24T01:33:32;14.00;64.80
13458;DHT22;6801;53.018;11.560;2023-04-24T01:35:59;14.00;64.90
13458;DHT22;6801;53.018;11.560;2023-04-24T01:38:26;14.00;64.90
13458;DHT22;6801;53.018;11.560;2023-04-24T01:40:55;14.00;64.90
13458;DHT22;6801;53.018;11.560;2023-04-24T01:43:24;14.00;64.80
13458;DHT22;6801;53.018;11.560;2023-04-24T01:45:51;14.00;64.90
13458;DHT22;6801;53.018;11.560;2023-04-24T01:48:18;14.00;64.80
13458;DHT22;6801;53.018;11.560;2023-04-24T01:50:45;13.90;64.80
13458;DHT22;6801;53.018;11.560;2023-04-24T01:53:12;13.90;64.80
13458;DHT22;6801;53.018;11.560;2023-04-24T01:55:40;13.90;64.90
13458;DHT22;6801;53.018;11.560;2023-04-24T01:58:08;13.80;65.00
13458;DHT22;6801;53.018;11.560;2023-04-24T02:00:35;13.80;64.90
13458;DHT22;6801;53.018;11.560;2023-04-24T02:03:02;13.80;65.00
13458;DHT22;6801;53.018;11.560;2023-04-24T02:05:29;13.80;65.10
13458;DHT22;6801;53.018;11.560;2023-04-24T02:07:56;13.80;65.20
13458;DHT22;6801;53.018;11.560;2023-04-24T02:10:23;13.70;65.30
13458;DHT22;6801;53.018;11.560;2023-04-24T02:12:50;13.70;65.50
13458;DHT22;6801;53.018;11.560;2023-04-24T02:15:19;13.70;65.60
13458;DHT22;6801;53.018;11.560;2023-04-24T02:17:46;13.70;65.80
13458;DHT22;6801;53.018;11.560;2023-04-24T02:20:13;13.70;65.80
13458;DHT22;6801;53.018;11.560;2023-04-24T02:22:39;13.60;65.80
13458;DHT22;6801;53.018;11.560;2023-04-24T02:25:07;13.70;65.90
13458;DHT22;6801;53.018;11.560;2023-04-24T02:27:34;13.60;65.80
13458;DHT22;6801;53.018;11.560;2023-04-24T02:30:06;13.60;65.90
13458;DHT22;6801;53.018;11.560;2023-04-24T02:32:35;13.60;66.10
13458;DHT22;6801;53.018;11.560;2023-04-24T02:35:02;13.60;66.00
13458;DHT22;6801;53.018;11.560;2023-04-24T02:37:29;13.60;65.90
13458;DHT22;6801;53.018;11.560;2023-04-24T02:39:56;13.60;65.90
13458;DHT22;6801;53.018;11.560;2023-04-24T02:42:23;13.50;65.90
13458;DHT22;6801;53.018;11.560;2023-04-24T02:44:50;13.50;65.80
13458;DHT22;6801;53.018;11.560;2023-04-24T02:47:18;13.50;65.80
13458;DHT22;6801;53.018;11.560;2023-04-24T02:49:46;13.50;65.90
13458;DHT22;6801;53.018;11.560;2023-04-24T02:52:13;13.50;66.00
13458;DHT22;6801;53.018;11.560;2023-04-24T02:54:41;13.50;65.90
13458;DHT22;6801;53.018;11.560;2023-04-24T02:57:07;13.50;66.10
13458;DHT22;6801;53.018;11.560;2023-04-24T02:59:35;13.50;66.00
13458;DHT22;6801;53.018;11.560;2023-04-24T03:02:02;13.50;66.00
13458;DHT22;6801;53.018;11.560;2023-04-24T03:04:29;13.50;66.00
13458;DHT22;6801;53.018;11.560;2023-04-24T03:06:59;13.40;66.00
13458;DHT22;6801;53.018;11.560;2023-04-24T03:09:26;13.40;66.00
13458;DHT22;6801;53.018;11.560;2023-04-24T03:11:53;13.40;66.00
13458;DHT22;6801;53.018;11.560;2023-04-24T03:14:21;13.40;65.90
13458;DHT22;6801;53.018;11.560;2023-04-24T03:16:48;13.40;65.90
13458;DHT22;6801;53.018;11.560;2023-04-24T03:19:15;13.40;65.90
13458;DHT22;6801;53.018;11.560;2023-04-24T03:21:54;13.40;65.90
13458;DHT22;6801;53.018;11.560;2023-04-24T03:24:22;13.30;65.90
13458;DHT22;6801;53.018;11.560;2023-04-24T03:26:49;13.30;65.90
13458;DHT22;6801;53.018;11.560;2023-04-24T03:29:29;13.30;65.80
13458;DHT22;6801;53.018;11.560;2023-04-24T03:31:57;13.30;65.70
13458;DHT22;6801;53.018;11.560;2023-04-24T03:34:24;13.30;65.90
13458;DHT22;6801;53.018;11.560;2023-04-24T03:36:51;13.30;66.00
13458;DHT22;6801;53.018;11.560;2023-04-24T03:39:19;13.20;66.00
13458;DHT22;6801;53.018;11.560;2023-04-24T03:41:53;13.20;66.00
13458;DHT22;6801;53.018;11.560;2023-04-24T03:44:25;13.20;66.10
13458;DHT22;6801;53.018;11.560;2023-04-24T03:46:52;13.10;66.10
13458;DHT22;6801;53.018;11.560;2023-04-24T03:49:21;13.00;66.20
13458;DHT22;6801;53.018;11.560;2023-04-24T03:51:48;13.10;66.10
13458;DHT22;6801;53.018;11.560;2023-04-24T03:54:20;13.00;66.10
13458;DHT22;6801;53.018;11.560;2023-04-24T03:56:50;13.00;66.10
13458;DHT22;6801;53.018;11.560;2023-04-24T03:59:18;13.00;66.20
13458;DHT22;6801;53.018;11.560;2023-04-24T04:01:53;12.90;66.10
13458;DHT22;6801;53.018;11.560;2023-04-24T04:04:20;12.90;66.20
13458;DHT22;6801;53.018;11.560;2023-04-24T04:06:47;12.90;66.10
13458;DHT22;6801;53.018;11.560;2023-04-24T04:09:15;12.90;66.10
13458;DHT22;6801;53.018;11.560;2023-04-24T04:11:42;12.80;66.20
13458;DHT22;6801;53.018;11.560;2023-04-24T04:14:11;12.80;66.10
13458;DHT22;6801;53.018;11.560;2023-04-24T04:16:43;12.80;66.10
13458;DHT22;6801;53.018;11.560;2023-04-24T04:19:11;12.70;66.10
13458;DHT22;6801;53.018;11.560;2023-04-24T04:21:38;12.70;66.10
13458;DHT22;6801;53.018;11.560;2023-04-24T04:24:12;12.70;66.20
13458;DHT22;6801;53.018;11.560;2023-04-24T04:26:43;12.60;66.20
13458;DHT22;6801;53.018;11.560;2023-04-24T04:29:18;12.60;66.20
13458;DHT22;6801;53.018;11.560;2023-04-24T04:31:50;12.60;66.30
13458;DHT22;6801;53.018;11.560;2023-04-24T04:34:18;12.60;66.30
13458;DHT22;6801;53.018;11.560;2023-04-24T04:36:45;12.60;66.30
13458;DHT22;6801;53.018;11.560;2023-04-24T04:39:29;12.60;66.40
13458;DHT22;6801;53.018;11.560;2023-04-24T04:42:00;12.50;66.70
13458;DHT22;6801;53.018;11.560;2023-04-24T04:44:35;12.50;67.10
13458;DHT22;6801;53.018;11.560;2023-04-24T04:47:07;12.50;67.20
13458;DHT22;6801;53.018;11.560;2023-04-24T04:49:36;12.50;67.20
13458;DHT22;6801;53.018;11.560;2023-04-24T04:52:07;12.50;67.30
13458;DHT22;6801;53.018;11.560;2023-04-24T04:54:34;12.50;67.00
13458;DHT22;6801;53.018;11.560;2023-04-24T04:57:01;12.50;67.20
13458;DHT22;6801;53.018;11.560;2023-04-24T04:59:28;12.50;67.20
13458;DHT22;6801;53.018;11.560;2023-04-24T05:02:02;12.50;67.40
13458;DHT22;6801;53.018;11.560;2023-04-24T05:04:31;12.50;67.60
13458;DHT22;6801;53.018;11.560;2023-04-24T05:06:58;12.60;67.70
13458;DHT22;6801;53.018;11.560;2023-04-24T05:09:28;12.60;67.70
13458;DHT22;6801;53.018;11.560;2023-04-24T05:12:00;12.70;67.60
13458;DHT22;6801;53.018;11.560;2023-04-24T05:14:31;12.80;67.60
13458;DHT22;6801;53.018;11.560;2023-04-24T05:16:59;12.90;67.60
13458;DHT22;6801;53.018;11.560;2023-04-24T05:19:27;13.00;67.50
13458;DHT22;6801;53.018;11.560;2023-04-24T05:21:57;13.00;67.30
13458;DHT22;6801;53.018;11.560;2023-04-24T05:24:24;13.10;67.30
13458;DHT22;6801;53.018;11.560;2023-04-24T05:27:17;13.20;67.30
13458;DHT22;6801;53.018;11.560;2023-04-24T05:29:45;13.30;67.00
13458;DHT22;6801;53.018;11.560;2023-04-24T05:32:13;13.50;67.00
13458;DHT22;6801;53.018;11.560;2023-04-24T05:34:40;13.50;66.80
13458;DHT22;6801;53.018;11.560;2023-04-24T05:37:09;13.60;66.70
13458;DHT22;6801;53.018;11.560;2023-04-24T05:39:37;13.70;66.70
13458;DHT22;6801;53.018;11.560;2023-04-24T05:42:04;13.70;66.50
13458;DHT22;6801;53.018;11.560;2023-04-24T05:44:31;13.80;66.60
13458;DHT22;6801;53.018;11.560;2023-04-24T05:46:58;13.90;66.70
13458;DHT22;6801;53.018;11.560;2023-04-24T05:49:27;13.90;66.80
13458;DHT22;6801;53.018;11.560;2023-04-24T05:51:56;14.00;66.70
13458;DHT22;6801;53.018;11.560;2023-04-24T05:54:25;14.00;66.60
13458;DHT22;6801;53.018;11.560;2023-04-24T05:56:52;14.00;66.70
13458;DHT22;6801;53.018;11.560;2023-04-24T05:59:30;14.00;66.70
13458;DHT22;6801;53.018;11.560;2023-04-24T06:01:57;14.00;66.60
13458;DHT22;6801;53.018;11.560;2023-04-24T06:04:24;14.00;66.70
13458;DHT22;6801;53.018;11.560;2023-04-24T06:06:51;14.10;66.80
13458;DHT22;6801;53.018;11.560;2023-04-24T06:09:21;14.10;66.80
13458;DHT22;6801;53.018;11.560;2023-04-24T06:11:50;14.10;67.00
13458;DHT22;6801;53.018;11.560;2023-04-24T06:14:20;14.10;66.80
13458;DHT22;6801;53.018;11.560;2023-04-24T06:17:07;14.10;66.90
13458;DHT22;6801;53.018;11.560;2023-04-24T06:19:37;14.10;66.90
13458;DHT22;6801;53.018;11.560;2023-04-24T06:22:04;14.20;66.80
13458;DHT22;6801;53.018;11.560;2023-04-24T06:24:31;14.20;66.70
13458;DHT22;6801;53.018;11.560;2023-04-24T06:26:59;14.20;66.70
13458;DHT22;6801;53.018;11.560;2023-04-24T06:29:27;14.20;66.90
13458;DHT22;6801;53.018;11.560;2023-04-24T06:31:54;14.20;66.80
13458;DHT22;6801;53.018;11.560;2023-04-24T06:34:20;14.20;66.80
13458;DHT22;6801;53.018;11.560;2023-04-24T06:36:47;14.20;66.80
13458;DHT22;6801;53.018;11.560;2023-04-24T06:39:14;14.20;66.80
13458;DHT22;6801;53.018;11.560;2023-04-24T06:41:41;14.20;66.80
13458;DHT22;6801;53.018;11.560;2023-04-24T06:44:19;14.30;66.80
13458;DHT22;6801;53.018;11.560;2023-04-24T06:46:46;14.40;66.70
13458;DHT22;6801;53.018;11.560;2023-04-24T06:49:13;14.50;66.70
13458;DHT22;6801;53.018;11.560;2023-04-24T06:51:41;14.50;66.50
13458;DHT22;6801;53.018;11.560;2023-04-24T06:54:08;14.60;66.30
13458;DHT22;6801;53.018;11.560;2023-04-24T06:56:35;14.70;65.60
13458;DHT22;6801;53.018;11.560;2023-04-24T06:59:02;14.80;65.30
13458;DHT22;6801;53.018;11.560;2023-04-24T07:01:30;14.80;65.20
13458;DHT22;6801;53.018;11.560;2023-04-24T07:03:57;14.90;65.10
13458;DHT22;6801;53.018;11.560;2023-04-24T07:06:25;15.00;64.90
13458;DHT22;6801;53.018;11.560;2023-04-24T07:08:53;15.00;64.50
13458;DHT22;6801;53.018;11.560;2023-04-24T07:11:21;15.10;64.10
13458;DHT22;6801;53.018;11.560;2023-04-24T07:13:48;15.10;64.10
13458;DHT22;6801;53.018;11.560;2023-04-24T07:16:15;15.20;64.00
13458;DHT22;6801;53.018;11.560;2023-04-24T07:18:44;15.20;63.90
13458;DHT22;6801;53.018;11.560;2023-04-24T07:21:11;15.20;63.70
13458;DHT22;6801;53.018;11.560;2023-04-24T07:23:38;15.20;63.30
13458;DHT22;6801;53.018;11.560;2023-04-24T07:26:06;15.20;63.30
13458;DHT22;6801;53.018;11.560;2023-04-24T07:28:33;15.30;63.10
13458;DHT22;6801;53.018;11.560;2023-04-24T07:31:00;15.30;63.00
13458;DHT22;6801;53.018;11.560;2023-04-24T07:33:27;15.30;62.90
13458;DHT22;6801;53.018;11.560;2023-04-24T07:35:56;15.30;62.70
13458;DHT22;6801;53.018;11.560;2023-04-24T07:38:22;15.30;62.60
13458;DHT22;6801;53.018;11.560;2023-04-24T07:40:51;15.40;62.50
13458;DHT22;6801;53.018;11.560;2023-04-24T07:43:20;15.30;62.60
13458;DHT22;6801;53.018;11.560;2023-04-24T07:45:47;15.30;62.70
13458;DHT22;6801;53.018;11.560;2023-04-24T07:48:14;15.40;62.70
13458;DHT22;6801;53.018;11.560;2023-04-24T07:50:41;15.30;62.90
13458;DHT22;6801;53.018;11.560;2023-04-24T07:53:10;15.30;62.90
13458;DHT22;6801;53.018;11.560;2023-04-24T07:55:37;15.40;63.00
13458;DHT22;6801;53.018;11.560;2023-04-24T07:58:04;15.40;63.00
13458;DHT22;6801;53.018;11.560;2023-04-24T08:00:31;15.40;63.00
13458;DHT22;6801;53.018;11.560;2023-04-24T08:02:58;15.40;63.10
13458;DHT22;6801;53.018;11.560;2023-04-24T08:05:25;15.30;63.20
13458;DHT22;6801;53.018;11.560;2023-04-24T08:07:54;15.40;63.10
13458;DHT22;6801;53.018;11.560;2023-04-24T08:10:23;15.40;62.90
13458;DHT22;6801;53.018;11.560;2023-04-24T08:12:50;15.40;62.80
13458;DHT22;6801;53.018;11.560;2023-04-24T08:15:17;15.40;63.10
13458;DHT22;6801;53.018;11.560;2023-04-24T08:17:44;15.40;63.20
13458;DHT22;6801;53.018;11.560;2023-04-24T08:20:11;15.40;63.30
13458;DHT22;6801;53.018;11.560;2023-04-24T08:22:40;15.50;63.10
13458;DHT22;6801;53.018;11.560;2023-04-24T08:25:07;15.50;62.80
13458;DHT22;6801;53.018;11.560;2023-04-24T08:27:36;15.60;62.10
13458;DHT22;6801;53.018;11.560;2023-04-24T08:30:05;15.60;62.20
13458;DHT22;6801;53.018;11.560;2023-04-24T08:32:32;15.60;62.30
13458;DHT22;6801;53.018;11.560;2023-04-24T08:34:59;15.70;62.50
13458;DHT22;6801;53.018;11.560;2023-04-24T08:37:27;15.70;62.30
13458;DHT22;6801;53.018;11.560;2023-04-24T08:39:54;15.70;61.60
13458;DHT22;6801;53.018;11.560;2023-04-24T08:42:21;15.80;61.30
13458;DHT22;6801;53.018;11.560;2023-04-24T08:44:50;15.90;61.20
13458;DHT22;6801;53.018;11.560;2023-04-24T08:47:17;15.80;61.30
13458;DHT22;6801;53.018;11.560;2023-04-24T08:49:45;15.80;61.40
13458;DHT22;6801;53.018;11.560;2023-04-24T08:52:15;15.80;60.90
13458;DHT22;6801;53.018;11.560;2023-04-24T08:54:43;15.80;61.30
13458;DHT22;6801;53.018;11.560;2023-04-24T08:57:11;15.70;61.30
13458;DHT22;6801;53.018;11.560;2023-04-24T08:59:40;15.80;61.20
13458;DHT22;6801;53.018;11.560;2023-04-24T09:02:10;15.80;61.20
13458;DHT22;6801;53.018;11.560;2023-04-24T09:04:37;15.80;61.20
13458;DHT22;6801;53.018;11.560;2023-04-24T09:07:06;15.80;61.10
13458;DHT22;6801;53.018;11.560;2023-04-24T09:09:34;15.80;61.20
13458;DHT22;6801;53.018;11.560;2023-04-24T09:12:02;15.80;61.40
13458;DHT22;6801;53.018;11.560;2023-04-24T09:14:30;15.80;61.40
13458;DHT22;6801;53.018;11.560;2023-04-24T09:16:57;15.80;61.40
13458;DHT22;6801;53.018;11.560;2023-04-24T09:19:25;15.90;60.80
13458;DHT22;6801;53.018;11.560;2023-04-24T09:21:53;15.90;60.70
13458;DHT22;6801;53.018;11.560;2023-04-24T09:24:21;16.00;60.80
13458;DHT22;6801;53.018;11.560;2023-04-24T09:26:55;15.90;60.60
13458;DHT22;6801;53.018;11.560;2023-04-24T09:29:22;16.00;60.80
13458;DHT22;6801;53.018;11.560;2023-04-24T09:31:49;16.00;60.70
13458;DHT22;6801;53.018;11.560;2023-04-24T09:34:21;16.00;60.70
13458;DHT22;6801;53.018;11.560;2023-04-24T09:36:50;16.00;60.70
13458;DHT22;6801;53.018;11.560;2023-04-24T09:39:18;16.00;60.90
13458;DHT22;6801;53.018;11.560;2023-04-24T09:41:47;16.00;60.90
13458;DHT22;6801;53.018;11.560;2023-04-24T09:44:15;16.00;61.10
13458;DHT22;6801;53.018;11.560;2023-04-24T09:46:44;16.00;61.10
13458;DHT22;6801;53.018;11.560;2023-04-24T09:49:14;16.00;61.20
13458;DHT22;6801;53.018;11.560;2023-04-24T09:51:42;16.00;61.00
13458;DHT22;6801;53.018;11.560;2023-04-24T09:54:15;16.00;60.60
13458;DHT22;6801;53.018;11.560;2023-04-24T09:56:43;16.00;60.10
13458;DHT22;6801;53.018;11.560;2023-04-24T09:59:12;16.00;60.30
13458;DHT22;6801;53.018;11.560;2023-04-24T10:01:40;16.00;59.90
13458;DHT22;6801;53.018;11.560;2023-04-24T10:04:17;16.00;60.20
13458;DHT22;6801;53.018;11.560;2023-04-24T10:06:45;16.00;60.50
13458;DHT22;6801;53.018;11.560;2023-04-24T10:09:14;16.00;60.20
13458;DHT22;6801;53.018;11.560;2023-04-24T10:11:42;15.90;59.10
13458;DHT22;6801;53.018;11.560;2023-04-24T10:14:12;15.80;59.20
13458;DHT22;6801;53.018;11.560;2023-04-24T10:16:40;15.80;59.00
13458;DHT22;6801;53.018;11.560;2023-04-24T10:19:07;15.80;58.10
13458;DHT22;6801;53.018;11.560;2023-04-24T10:21:35;15.70;58.30
13458;DHT22;6801;53.018;11.560;2023-04-24T10:24:03;15.60;59.00
13458;DHT22;6801;53.018;11.560;2023-04-24T10:26:34;15.50;59.80
13458;DHT22;6801;53.018;11.560;2023-04-24T10:29:05;15.40;60.30
13458;DHT22;6801;53.018;11.560;2023-04-24T10:31:36;15.40;60.80
13458;DHT22;6801;53.018;11.560;2023-04-24T10:34:03;15.30;61.30
13458;DHT22;6801;53.018;11.560;2023-04-24T10:36:31;15.20;61.70
13458;DHT22;6801;53.018;11.560;2023-04-24T10:39:00;15.20;62.10
13458;DHT22;6801;53.018;11.560;2023-04-24T10:41:30;15.20;62.50
13458;DHT22;6801;53.018;11.560;2023-04-24T10:44:09;15.10;63.00
13458;DHT22;6801;53.018;11.560;2023-04-24T10:46:37;15.10;63.30
13458;DHT22;6801;53.018;11.560;2023-04-24T10:49:04;15.00;63.50
13458;DHT22;6801;53.018;11.560;2023-04-24T10:51:46;15.00;63.70
13458;DHT22;6801;53.018;11.560;2023-04-24T10:54:34;15.00;64.00
13458;DHT22;6801;53.018;11.560;2023-04-24T10:57:25;15.00;64.10
13458;DHT22;6801;53.018;11.560;2023-04-24T11:02:52;15.00;64.40
13458;DHT22;6801;53.018;11.560;2023-04-24T11:05:22;15.10;64.70
13458;DHT22;6801;53.018;11.560;2023-04-24T11:08:11;15.10;64.70
13458;DHT22;6801;53.018;11.560;2023-04-24T11:10:39;15.10;65.00
13458;DHT22;6801;53.018;11.560;2023-04-24T11:13:06;15.20;65.00
13458;DHT22;6801;53.018;11.560;2023-04-24T11:15:34;15.20;64.80
13458;DHT22;6801;53.018;11.560;2023-04-24T11:18:02;15.30;64.60
13458;DHT22;6801;53.018;11.560;2023-04-24T11:20:30;15.40;64.40
13458;DHT22;6801;53.018;11.560;2023-04-24T11:23:03;15.50;64.20
13458;DHT22;6801;53.018;11.560;2023-04-24T11:25:31;15.50;62.10
13458;DHT22;6801;53.018;11.560;2023-04-24T11:28:04;15.60;63.80
13458;DHT22;6801;53.018;11.560;2023-04-24T11:30:32;15.60;63.20
13458;DHT22;6801;53.018;11.560;2023-04-24T11:33:05;15.80;62.70
13458;DHT22;6801;53.018;11.560;2023-04-24T11:35:35;15.90;62.80
13458;DHT22;6801;53.018;11.560;2023-04-24T11:38:06;16.00;62.40
13458;DHT22;6801;53.018;11.560;2023-04-24T11:40:34;16.00;62.30
13458;DHT22;6801;53.018;11.560;2023-04-24T11:43:01;16.10;62.40
13458;DHT22;6801;53.018;11.560;2023-04-24T11:45:30;16.20;62.10
13458;DHT22;6801;53.018;11.560;2023-04-24T11:47:57;16.20;62.20
13458;DHT22;6801;53.018;11.560;2023-04-24T11:50:26;16.40;62.00
13458;DHT22;6801;53.018;11.560;2023-04-24T11:52:55;16.50;60.70
13458;DHT22;6801;53.018;11.560;2023-04-24T11:55:26;16.70;59.80
13458;DHT22;6801;53.018;11.560;2023-04-24T11:57:55;16.70;58.10
13458;DHT22;6801;53.018;11.560;2023-04-24T12:00:28;16.90;57.70
13458;DHT22;6801;53.018;11.560;2023-04-24T12:03:05;17.00;57.40
13458;DHT22;6801;53.018;11.560;2023-04-24T12:05:34;17.10;56.40
13458;DHT22;6801;53.018;11.560;2023-04-24T12:08:01;17.10;55.70
13458;DHT22;6801;53.018;11.560;2023-04-24T12:10:29;17.20;56.00
13458;DHT22;6801;53.018;11.560;2023-04-24T12:12:58;17.20;56.90
13458;DHT22;6801;53.018;11.560;2023-04-24T12:15:25;17.30;54.30
13458;DHT22;6801;53.018;11.560;2023-04-24T12:17:54;17.20;54.80
13458;DHT22;6801;53.018;11.560;2023-04-24T12:20:24;17.30;53.80
13458;DHT22;6801;53.018;11.560;2023-04-24T12:22:54;17.30;53.40
13458;DHT22;6801;53.018;11.560;2023-04-24T12:25:22;17.30;55.10
13458;DHT22;6801;53.018;11.560;2023-04-24T12:27:53;17.40;55.00
13458;DHT22;6801;53.018;11.560;2023-04-24T12:30:21;17.40;55.00
13458;DHT22;6801;53.018;11.560;2023-04-24T12:32:52;17.40;54.30
13458;DHT22;6801;53.018;11.560;2023-04-24T12:35:22;17.50;54.10
13458;DHT22;6801;53.018;11.560;2023-04-24T12:37:49;17.50;53.90
13458;DHT22;6801;53.018;11.560;2023-04-24T12:40:19;17.60;51.00
13458;DHT22;6801;53.018;11.560;2023-04-24T12:42:47;17.50;52.50
13458;DHT22;6801;53.018;11.560;2023-04-24T12:45:15;17.60;51.80
13458;DHT22;6801;53.018;11.560;2023-04-24T12:47:43;17.60;52.10
13458;DHT22;6801;53.018;11.560;2023-04-24T12:50:12;17.70;52.00
13458;DHT22;6801;53.018;11.560;2023-04-24T12:52:39;17.80;51.20
13458;DHT22;6801;53.018;11.560;2023-04-24T12:55:07;17.80;49.20
13458;DHT22;6801;53.018;11.560;2023-04-24T12:57:38;17.80;48.70
13458;DHT22;6801;53.018;11.560;2023-04-24T13:00:06;17.90;48.60
13458;DHT22;6801;53.018;11.560;2023-04-24T13:02:34;17.90;50.10
13458;DHT22;6801;53.018;11.560;2023-04-24T13:05:02;17.90;51.20
13458;DHT22;6801;53.018;11.560;2023-04-24T13:07:29;18.00;47.50
13458;DHT22;6801;53.018;11.560;2023-04-24T13:09:56;17.90;48.40
13458;DHT22;6801;53.018;11.560;2023-04-24T13:12:24;17.90;48.00
13458;DHT22;6801;53.018;11.560;2023-04-24T13:14:53;17.80;48.40
13458;DHT22;6801;53.018;11.560;2023-04-24T13:17:21;17.70;49.20
13458;DHT22;6801;53.018;11.560;2023-04-24T13:19:49;17.70;49.20
13458;DHT22;6801;53.018;11.560;2023-04-24T13:22:17;17.70;48.70
13458;DHT22;6801;53.018;11.560;2023-04-24T13:24:45;17.70;48.70
13458;DHT22;6801;53.018;11.560;2023-04-24T13:27:14;17.70;49.50
13458;DHT22;6801;53.018;11.560;2023-04-24T13:29:41;17.80;49.40
13458;DHT22;6801;53.018;11.560;2023-04-24T13:32:10;17.70;49.10
13458;DHT22;6801;53.018;11.560;2023-04-24T13:34:37;17.80;49.70
13458;DHT22;6801;53.018;11.560;2023-04-24T13:37:04;17.70;49.40
13458;DHT22;6801;53.018;11.560;2023-04-24T13:39:31;17.80;49.70
13458;DHT22;6801;53.018;11.560;2023-04-24T13:41:58;17.70;49.20
13458;DHT22;6801;53.018;11.560;2023-04-24T13:44:26;17.80;47.80
13458;DHT22;6801;53.018;11.560;2023-04-24T13:46:54;17.80;48.70
13458;DHT22;6801;53.018;11.560;2023-04-24T13:49:24;17.70;48.90
13458;DHT22;6801;53.018;11.560;2023-04-24T13:51:52;17.60;49.20
13458;DHT22;6801;53.018;11.560;2023-04-24T13:54:19;17.70;48.00
13458;DHT22;6801;53.018;11.560;2023-04-24T13:56:46;17.70;46.80
13458;DHT22;6801;53.018;11.560;2023-04-24T13:59:13;17.60;47.80
13458;DHT22;6801;53.018;11.560;2023-04-24T14:01:40;17.60;47.90
13458;DHT22;6801;53.018;11.560;2023-04-24T14:04:07;17.50;47.70
13458;DHT22;6801;53.018;11.560;2023-04-24T14:06:35;17.50;47.80
13458;DHT22;6801;53.018;11.560;2023-04-24T14:09:02;17.40;47.60
13458;DHT22;6801;53.018;11.560;2023-04-24T14:11:29;17.30;48.30
13458;DHT22;6801;53.018;11.560;2023-04-24T14:13:56;17.30;47.90
13458;DHT22;6801;53.018;11.560;2023-04-24T14:16:23;17.30;48.00
13458;DHT22;6801;53.018;11.560;2023-04-24T14:18:50;17.30;48.70
13458;DHT22;6801;53.018;11.560;2023-04-24T14:21:17;17.20;50.00
13458;DHT22;6801;53.018;11.560;2023-04-24T14:23:45;17.20;48.50
13458;DHT22;6801;53.018;11.560;2023-04-24T14:26:12;17.20;48.70
13458;DHT22;6801;53.018;11.560;2023-04-24T14:28:39;17.20;48.20
13458;DHT22;6801;53.018;11.560;2023-04-24T14:31:06;17.20;48.60
13458;DHT22;6801;53.018;11.560;2023-04-24T14:33:33;17.10;49.00
13458;DHT22;6801;53.018;11.560;2023-04-24T14:36:00;17.10;49.40
13458;DHT22;6801;53.018;11.560;2023-04-24T14:38:28;17.10;49.20
13458;DHT22;6801;53.018;11.560;2023-04-24T14:40:57;17.10;48.60
13458;DHT22;6801;53.018;11.560;2023-04-24T14:43:24;17.10;49.10
13458;DHT22;6801;53.018;11.560;2023-04-24T14:45:51;17.10;48.40
13458;DHT22;6801;53.018;11.560;2023-04-24T14:48:17;17.10;49.30
13458;DHT22;6801;53.018;11.560;2023-04-24T14:50:44;17.00;49.10
13458;DHT22;6801;53.018;11.560;2023-04-24T14:53:11;17.00;49.00
13458;DHT22;6801;53.018;11.560;2023-04-24T14:55:38;16.90;49.20
13458;DHT22;6801;53.018;11.560;2023-04-24T14:58:07;16.70;49.60
13458;DHT22;6801;53.018;11.560;2023-04-24T15:00:34;16.60;50.10
13458;DHT22;6801;53.018;11.560;2023-04-24T15:03:01;16.50;50.50
13458;DHT22;6801;53.018;11.560;2023-04-24T15:05:28;16.40;51.00
13458;DHT22;6801;53.018;11.560;2023-04-24T15:07:55;16.40;51.40
13458;DHT22;6801;53.018;11.560;2023-04-24T15:10:22;16.40;51.30
13458;DHT22;6801;53.018;11.560;2023-04-24T15:12:51;16.40;51.30
13458;DHT22;6801;53.018;11.560;2023-04-24T15:15:19;16.40;51.50
13458;DHT22;6801;53.018;11.560;2023-04-24T15:17:46;16.30;51.60
13458;DHT22;6801;53.018;11.560;2023-04-24T15:20:13;16.30;51.60
13458;DHT22;6801;53.018;11.560;2023-04-24T15:22:41;16.30;51.60
13458;DHT22;6801;53.018;11.560;2023-04-24T15:25:10;16.30;51.80
13458;DHT22;6801;53.018;11.560;2023-04-24T15:27:41;16.30;52.50
13458;DHT22;6801;53.018;11.560;2023-04-24T15:30:09;16.30;54.10
13458;DHT22;6801;53.018;11.560;2023-04-24T15:32:38;16.20;54.60
13458;DHT22;6801;53.018;11.560;2023-04-24T15:35:05;16.10;55.10
13458;DHT22;6801;53.018;11.560;2023-04-24T15:37:32;16.10;55.50
13458;DHT22;6801;53.018;11.560;2023-04-24T15:39:59;16.10;55.80
13458;DHT22;6801;53.018;11.560;2023-04-24T15:42:28;16.00;56.20